• Join FlightAware (Why Join?)
  • Login
  • US Flag 
01:20AM EDT


 

Airport Tracker/Info


-or-


 

Live Flight TrackerFlight Track Log ✈ DAL6035 ✈ 13-Apr-2013 ✈ KMHT - KLGA

Flight Track Log - Related Links

Times and Time Zones

All times are in EDT time to prevent confusion due to time zone crossing. See the DAL6035 flight status page for this flight to view local times or setup timezone preferences in your user account.

Time Position Orientation Groundspeed Altitude Reporting Facility
EDT Latitude Longitude Course Direction KTS MPH feet Rate Location/Type
02:05PM 42.9500 -71.4500 344° North 160 184 1,100  Level KA90
02:06PM 42.9714 -71.4583 344° North 193 222 2,000 1,920 Climbing Boston Center
02:07PM 43.0467 -71.4969 339° North 205 236 4,700 2,160 Climbing Boston Center
02:08PM 43.0908 -71.5558 316° Northwest 235 270 6,900 2,400 Climbing Boston Center
02:09PM 43.1375 -71.6406 307° West 250 288 9,600 2,160 Climbing Boston Center
02:10PM 43.1150 -71.7119 247° West 232 267 11,300 1,620 Climbing Boston Center
02:11PM 43.0467 -71.7839 218° Southwest 250 288 12,900 1,560 Climbing Boston Center
02:12PM 42.9886 -71.8469 218° Southwest 289 333 14,500 1,500 Climbing Boston Center
02:13PM 42.9181 -71.9242 219° Southwest 302 348 16,000 720 Climbing Boston Center
02:14PM 42.8539 -71.9925 218° Southwest 314 361 16,000  Level Boston Center
02:15PM 42.7708 -72.0808 218° Southwest 338 389 16,000  Level Boston Center
02:16PM 42.7022 -72.1519 217° Southwest 353 406 16,000  Level Boston Center
02:17PM 42.6169 -72.2397 217° Southwest 359 413 16,000  Level Boston Center
02:18PM 42.5503 -72.3161 220° Southwest 354 407 16,000  Level Boston Center
02:19PM 42.4733 -72.3950 217° Southwest 354 407 16,000  Level Boston Center
02:20PM 42.3942 -72.4767 217° Southwest 354 407 16,000  Level Boston Center
02:21PM 42.3128 -72.5692 220° Southwest 349 402 16,000  Level Boston Center
02:22PM 42.2583 -72.6589 231° Southwest 349 402 16,000  Level Boston Center
02:23PM 42.2000 -72.7428 227° Southwest 349 402 16,000 -300 Level Boston Center
02:24PM 42.1244 -72.8628 230° Southwest 354 407 15,400 -1,020 Descending Boston Center
02:25PM 42.0617 -72.9603 229° Southwest 354 407 14,000 -720 Descending Boston Center
02:26PM 42.0008 -73.0492 227° Southwest 342 394 14,000  Level Boston Center
02:27PM 41.9336 -73.1350 224° Southwest 337 388 14,000  Level Boston Center
02:28PM 41.8642 -73.2178 222° Southwest 337 388 14,000 -300 Level Boston Center
02:29PM 41.7928 -73.2978 220° Southwest 337 388 13,500 -900 Descending Boston Center
02:30PM 41.7169 -73.3800 219° Southwest 343 395 12,200 -1,380 Descending Boston Center
02:31PM 41.6539 -73.4542 221° Southwest 348 400 10,800 -900 Descending Boston Center
02:32PM 41.5333 -73.5833 219° Southwest 337 388 10,100 -480 Descending New York TRACON
02:33PM 41.4667 -73.6500 217° Southwest 273 314 9,700 -1,020 Descending New York TRACON
02:34PM 41.4167 -73.7167 225° Southwest 245 282 8,100 -1,740 Descending New York TRACON
02:35PM 41.3667 -73.7667 217° Southwest 255 293 6,400 -1,620 Descending New York TRACON
02:36PM 41.3000 -73.7667 180° South 264 304 5,100 -720 Descending New York TRACON
02:37PM 41.2500 -73.7167 143° Southeast 240 276 5,000 -480 Descending New York TRACON
02:38PM 41.2000 -73.6667 143° Southeast 205 236 4,100 -540 Descending New York TRACON
02:39PM 41.2000 -73.6000 90° East 209 241 4,000  Descending New York TRACON
02:40PM 41.1667 -73.5667 143° Southeast 202 232 4,100  Climbing New York TRACON
02:41PM 41.1167 -73.6000 207° Southwest 201 231 4,000  Descending New York TRACON
02:42PM 41.0667 -73.6333 207° Southwest 190 219 4,100  Climbing New York TRACON
02:43PM 41.0167 -73.6833 217° Southwest 193 222 4,100 -60 Level New York TRACON
02:44PM 40.9833 -73.7167 217° Southwest 186 214 4,000 -240 Descending New York TRACON
02:45PM 40.9333 -73.7500 207° Southwest 181 208 3,700 -660 Descending New York TRACON
02:46PM 40.9000 -73.7833 217° Southwest 171 197 2,700 -900 Descending New York TRACON
02:47PM 40.8667 -73.8000 201° Southwest 143 165 1,900 -840 Descending New York TRACON
02:48PM 40.8333 -73.8333 217° Southwest 144 166 1,100 -840 Descending New York TRACON
02:49PM 40.7833 -73.8667 207° Southwest 138 159 200 -840 Descending New York TRACON
02:51PM 40.7772 -73.8726 180° South  Level Estimated
02:58PM 40.7772 -73.8726 180° South  Level Estimated